Time;durP1;ratioP1;P1;durP2;ratioP2;P2;SDS_P1;SDS_P2;PMS_P1;PMS_P2;Temp;Humidity;BMP_temperature;BMP_pressure;BME280_temperature;BME280_humidity;BME280_pressure;Samples;Min_cycle;Max_cycle;Signal;HPM_P1;HPM_P2
2021/06/29 00:00:26;;;;;;;16.93;15.13;;;;;;;;;;764539;179;919496;-73
2021/06/29 00:02:58;;;;;;;21.17;14.67;;;;;;;;;;765587;182;919645;-74
2021/06/29 00:05:23;;;;;;;15.03;13.43;;;;;;;;;;773579;181;919525;-75
2021/06/29 00:07:49;;;;;;;17.43;14.63;;;;;;;;;;765415;182;898942;-74
2021/06/29 00:10:15;;;;;;;19.40;17.40;;;;;;;;;;768128;181;816224;-75
2021/06/29 00:12:41;;;;;;;17.17;14.30;;;;;;;;;;768613;182;981385;-73
2021/06/29 00:15:07;;;;;;;18.00;15.40;;;;;;;;;;765135;182;918544;-74
2021/06/29 00:17:33;;;;;;;15.00;13.47;;;;;;;;;;765363;182;918949;-74
2021/06/29 00:19:59;;;;;;;15.90;14.20;;;;;;;;;;763520;182;919911;-74
2021/06/29 00:22:25;;;;;;;18.08;16.17;;;;;;;;;;769674;182;917799;-74
2021/06/29 00:24:51;;;;;;;17.07;15.13;;;;;;;;;;762812;182;919677;-75
2021/06/29 00:27:17;;;;;;;16.77;15.10;;;;;;;;;;762783;182;918852;-76
2021/06/29 00:29:43;;;;;;;18.60;15.97;;;;;;;;;;770460;182;821963;-76
2021/06/29 00:32:08;;;;;;;19.50;15.27;;;;;;;;;;763111;182;917540;-75
2021/06/29 00:34:34;;;;;;;24.93;16.80;;;;;;;;;;765789;182;816040;-75
2021/06/29 00:37:00;;;;;;;18.60;16.37;;;;;;;;;;771934;182;797372;-74
2021/06/29 00:39:26;;;;;;;23.00;18.70;;;;;;;;;;765998;182;816785;-75
2021/06/29 00:41:52;;;;;;;22.62;17.23;;;;;;;;;;768579;179;920999;-75
2021/06/29 00:44:19;;;;;;;21.37;17.25;;;;;;;;;;767512;182;918934;-74
2021/06/29 00:46:45;;;;;;;26.40;18.80;;;;;;;;;;767469;182;912070;-74
2021/06/29 00:49:10;;;;;;;20.07;17.43;;;;;;;;;;766061;182;919287;-74
2021/06/29 00:51:36;;;;;;;22.03;18.10;;;;;;;;;;763380;182;919439;-76
2021/06/29 00:54:02;;;;;;;36.17;18.73;;;;;;;;;;772700;182;919489;-76
2021/06/29 00:56:28;;;;;;;20.33;18.10;;;;;;;;;;763782;180;916099;-75
2021/06/29 00:58:54;;;;;;;24.00;18.90;;;;;;;;;;763596;182;826814;-74
2021/06/29 01:01:20;;;;;;;23.97;19.90;;;;;;;;;;771024;182;917540;-74
2021/06/29 01:03:46;;;;;;;22.03;19.73;;;;;;;;;;765844;182;915990;-75
2021/06/29 01:06:11;;;;;;;24.00;19.60;;;;;;;;;;762062;182;941571;-73
2021/06/29 01:08:37;;;;;;;22.87;20.37;;;;;;;;;;768765;182;914960;-73
2021/06/29 01:11:03;;;;;;;26.03;20.63;;;;;;;;;;759291;179;955931;-75
2021/06/29 01:13:32;;;;;;;23.90;18.77;;;;;;;;;;766035;182;919827;-76
2021/06/29 01:15:58;;;;;;;27.07;20.40;;;;;;;;;;762631;181;918293;-75
2021/06/29 01:18:24;;;;;;;27.83;20.47;;;;;;;;;;766618;182;918739;-76
2021/06/29 01:20:49;;;;;;;24.67;20.27;;;;;;;;;;767328;182;815995;-75
2021/06/29 01:23:19;;;;;;;29.03;21.40;;;;;;;;;;766028;182;918751;-75
2021/06/29 01:25:43;;;;;;;28.07;20.90;;;;;;;;;;770549;182;918748;-76
2021/06/29 01:28:19;;;;;;;22.50;20.10;;;;;;;;;;766569;182;816276;-75
2021/06/29 01:33:10;;;;;;;26.80;21.50;;;;;;;;;;763626;182;918182;-72
2021/06/29 01:35:36;;;;;;;28.27;22.45;;;;;;;;;;765056;179;918553;-74
2021/06/29 01:38:02;;;;;;;26.47;21.37;;;;;;;;;;760616;182;919614;-75
2021/06/29 01:40:30;;;;;;;26.35;22.17;;;;;;;;;;762616;179;918999;-75
2021/06/29 01:42:58;;;;;;;31.00;23.47;;;;;;;;;;769437;182;920016;-74
2021/06/29 01:45:21;;;;;;;27.42;22.52;;;;;;;;;;764972;179;1036380;-75
2021/06/29 01:50:21;;;;;;;27.93;21.80;;;;;;;;;;762520;182;918290;-76
2021/06/29 01:52:46;;;;;;;28.60;22.27;;;;;;;;;;770260;182;918812;-76
2021/06/29 01:55:12;;;;;;;27.85;24.40;;;;;;;;;;762150;182;918478;-77
2021/06/29 01:57:41;;;;;;;31.53;23.93;;;;;;;;;;765006;182;919191;-76
2021/06/29 02:00:07;;;;;;;30.40;23.93;;;;;;;;;;763005;179;918310;-74
2021/06/29 02:02:30;;;;;;;29.07;25.97;;;;;;;;;;771429;181;916277;-76
2021/06/29 02:04:56;;;;;;;28.47;24.30;;;;;;;;;;761868;182;919266;-77
2021/06/29 02:07:22;;;;;;;38.95;24.63;;;;;;;;;;761348;182;919432;-76
2021/06/29 02:09:48;;;;;;;32.00;23.43;;;;;;;;;;770498;182;918345;-77
2021/06/29 02:12:14;;;;;;;29.53;24.33;;;;;;;;;;759568;182;983339;-77
2021/06/29 02:14:40;;;;;;;33.13;25.70;;;;;;;;;;763435;182;932212;-76
2021/06/29 02:17:06;;;;;;;32.00;25.13;;;;;;;;;;770123;182;919398;-75
2021/06/29 02:19:32;;;;;;;33.60;26.17;;;;;;;;;;759877;182;918098;-75
2021/06/29 02:21:58;;;;;;;34.67;25.57;;;;;;;;;;766724;179;918611;-75
2021/06/29 02:24:24;;;;;;;28.97;23.90;;;;;;;;;;763675;182;918800;-75
2021/06/29 02:26:50;;;;;;;33.73;25.70;;;;;;;;;;772831;180;918833;-75
2021/06/29 02:29:16;;;;;;;35.97;25.93;;;;;;;;;;768683;181;924520;-75
2021/06/29 02:31:42;;;;;;;35.60;26.77;;;;;;;;;;766983;179;918207;-75
2021/06/29 02:34:08;;;;;;;35.50;25.93;;;;;;;;;;765206;182;911994;-75
2021/06/29 02:36:33;;;;;;;30.88;24.70;;;;;;;;;;766994;179;815797;-75
2021/06/29 02:38:59;;;;;;;31.60;25.37;;;;;;;;;;767828;182;917895;-74
2021/06/29 02:41:25;;;;;;;39.50;26.70;;;;;;;;;;770833;179;914135;-75
2021/06/29 02:43:51;;;;;;;43.07;28.27;;;;;;;;;;766709;182;919960;-74
2021/06/29 02:46:17;;;;;;;34.47;25.70;;;;;;;;;;765686;179;1022688;-73
2021/06/29 02:48:44;;;;;;;39.60;28.00;;;;;;;;;;768183;182;1020507;-74
2021/06/29 02:51:09;;;;;;;33.30;27.00;;;;;;;;;;764753;179;935727;-74
2021/06/29 02:53:35;;;;;;;34.03;27.40;;;;;;;;;;769295;180;918758;-75
2021/06/29 02:56:01;;;;;;;34.17;26.43;;;;;;;;;;764915;182;919046;-73
2021/06/29 02:58:27;;;;;;;44.47;29.93;;;;;;;;;;771882;182;917123;-74
2021/06/29 03:00:53;;;;;;;35.30;29.37;;;;;;;;;;765278;179;919521;-73
2021/06/29 03:03:19;;;;;;;42.83;29.20;;;;;;;;;;762516;182;919260;-73
2021/06/29 03:05:44;;;;;;;40.57;31.77;;;;;;;;;;768715;182;917038;-73
2021/06/29 03:08:10;;;;;;;40.87;30.87;;;;;;;;;;760956;182;918935;-74
2021/06/29 03:10:36;;;;;;;39.87;30.07;;;;;;;;;;762718;179;918938;-75
2021/06/29 03:13:02;;;;;;;37.70;30.77;;;;;;;;;;769921;182;919199;-73
2021/06/29 03:15:28;;;;;;;40.77;31.77;;;;;;;;;;761923;182;919512;-71
2021/06/29 03:17:54;;;;;;;39.33;31.17;;;;;;;;;;760425;182;1127429;-72
2021/06/29 03:20:19;;;;;;;41.60;32.53;;;;;;;;;;762583;182;918706;-72
2021/06/29 03:22:46;;;;;;;39.10;32.80;;;;;;;;;;767568;182;919434;-73
2021/06/29 03:25:11;;;;;;;40.00;31.10;;;;;;;;;;766571;180;941975;-73
2021/06/29 03:27:37;;;;;;;44.75;29.40;;;;;;;;;;765009;182;918925;-73
2021/06/29 03:30:05;;;;;;;44.47;33.50;;;;;;;;;;767313;182;919463;-74
2021/06/29 03:32:31;;;;;;;43.83;33.60;;;;;;;;;;764683;182;920587;-73
2021/06/29 03:34:57;;;;;;;44.05;35.25;;;;;;;;;;762387;182;917947;-74
2021/06/29 03:37:23;;;;;;;43.77;34.20;;;;;;;;;;769103;182;919207;-73
2021/06/29 03:39:49;;;;;;;37.30;31.47;;;;;;;;;;767187;180;919157;-73
2021/06/29 03:42:14;;;;;;;50.73;30.67;;;;;;;;;;763880;182;919374;-72
2021/06/29 03:44:40;;;;;;;48.17;33.85;;;;;;;;;;764517;182;919194;-69
2021/06/29 03:47:06;;;;;;;42.10;32.07;;;;;;;;;;769345;180;919227;-73
2021/06/29 03:49:32;;;;;;;37.40;32.07;;;;;;;;;;765138;182;919798;-72
2021/06/29 03:51:58;;;;;;;37.10;32.23;;;;;;;;;;763482;180;917700;-73
2021/06/29 03:54:24;;;;;;;44.10;34.17;;;;;;;;;;772083;182;918357;-73
2021/06/29 03:56:50;;;;;;;39.97;32.73;;;;;;;;;;763079;182;1123234;-73
2021/06/29 03:59:15;;;;;;;44.20;35.20;;;;;;;;;;764811;182;919404;-73
2021/06/29 04:01:41;;;;;;;39.60;31.97;;;;;;;;;;769858;182;901067;-73
2021/06/29 04:04:08;;;;;;;46.87;34.70;;;;;;;;;;763630;182;918799;-74
2021/06/29 04:06:33;;;;;;;43.33;31.57;;;;;;;;;;769886;182;623021;-72
2021/06/29 04:08:59;;;;;;;43.00;32.13;;;;;;;;;;770571;182;1022336;-73
2021/06/29 04:11:25;;;;;;;43.83;32.50;;;;;;;;;;763826;182;919527;-74
2021/06/29 04:13:50;;;;;;;38.67;31.87;;;;;;;;;;764603;179;919366;-71
2021/06/29 04:16:16;;;;;;;46.30;34.07;;;;;;;;;;762544;182;920283;-72
2021/06/29 04:18:42;;;;;;;40.57;31.00;;;;;;;;;;763021;182;923729;-72
2021/06/29 04:21:08;;;;;;;43.95;35.05;;;;;;;;;;766525;179;920296;-73
2021/06/29 04:23:34;;;;;;;52.77;33.90;;;;;;;;;;764620;182;919264;-76
2021/06/29 04:26:00;;;;;;;41.10;32.90;;;;;;;;;;774318;180;632239;-73
2021/06/29 04:28:26;;;;;;;49.53;34.33;;;;;;;;;;769184;182;631421;-75
2021/06/29 04:30:51;;;;;;;39.70;32.80;;;;;;;;;;766188;182;628198;-74
2021/06/29 04:33:17;;;;;;;47.50;32.67;;;;;;;;;;771369;182;698103;-75
2021/06/29 04:35:43;;;;;;;48.77;33.83;;;;;;;;;;770191;182;628817;-73
2021/06/29 04:38:09;;;;;;;45.10;33.10;;;;;;;;;;770239;182;625799;-75
2021/06/29 04:40:35;;;;;;;55.15;35.63;;;;;;;;;;769833;182;636048;-71
2021/06/29 04:43:01;;;;;;;45.87;31.63;;;;;;;;;;757426;182;612384;-74
2021/06/29 04:45:27;;;;;;;41.40;32.30;;;;;;;;;;767582;182;629117;-73
2021/06/29 04:47:54;;;;;;;44.20;32.20;;;;;;;;;;767659;182;626074;-74
2021/06/29 04:50:18;;;;;;;45.23;32.10;;;;;;;;;;770628;180;618464;-73
2021/06/29 04:52:44;;;;;;;37.33;30.93;;;;;;;;;;770393;181;629599;-75
2021/06/29 04:55:10;;;;;;;42.00;31.00;;;;;;;;;;769431;182;634793;-74
2021/06/29 04:57:36;;;;;;;39.63;32.27;;;;;;;;;;771235;182;623105;-74
2021/06/29 05:00:07;;;;;;;47.80;30.40;;;;;;;;;;766785;179;919052;-77
2021/06/29 05:02:28;;;;;;;41.10;31.80;;;;;;;;;;763342;182;918349;-73
2021/06/29 05:04:54;;;;;;;36.93;30.07;;;;;;;;;;771365;182;918493;-73
2021/06/29 05:07:20;;;;;;;38.17;29.77;;;;;;;;;;766503;182;1117779;-74
2021/06/29 05:09:45;;;;;;;34.37;27.50;;;;;;;;;;763263;182;936488;-73
2021/06/29 05:12:11;;;;;;;33.83;28.98;;;;;;;;;;767827;182;815377;-72
2021/06/29 05:14:37;;;;;;;37.40;27.67;;;;;;;;;;762506;182;919681;-74
2021/06/29 05:17:03;;;;;;;35.27;26.97;;;;;;;;;;762905;182;918018;-75
2021/06/29 05:19:29;;;;;;;39.17;28.93;;;;;;;;;;759908;182;919004;-75
2021/06/29 05:21:55;;;;;;;30.07;25.07;;;;;;;;;;771676;182;918566;-77
2021/06/29 05:24:21;;;;;;;36.23;26.20;;;;;;;;;;761916;182;855886;-76
2021/06/29 05:26:47;;;;;;;27.03;24.13;;;;;;;;;;762990;182;919100;-78
2021/06/29 05:29:12;;;;;;;33.40;24.63;;;;;;;;;;771563;182;918098;-73
2021/06/29 05:31:38;;;;;;;33.13;24.07;;;;;;;;;;767142;181;815150;-77
2021/06/29 05:34:04;;;;;;;28.77;22.20;;;;;;;;;;766555;182;919567;-75
2021/06/29 05:36:30;;;;;;;29.12;24.10;;;;;;;;;;766417;182;906873;-72
2021/06/29 05:38:56;;;;;;;33.90;24.73;;;;;;;;;;766732;180;916774;-75
2021/06/29 05:41:22;;;;;;;36.13;27.47;;;;;;;;;;764898;182;914304;-74
2021/06/29 05:43:48;;;;;;;38.17;26.77;;;;;;;;;;763955;182;915086;-74
2021/06/29 05:46:13;;;;;;;29.60;23.80;;;;;;;;;;767729;182;914599;-76
2021/06/29 05:48:39;;;;;;;29.67;24.20;;;;;;;;;;763269;182;919576;-78
2021/06/29 05:51:05;;;;;;;31.77;23.23;;;;;;;;;;763655;182;912453;-82
2021/06/29 05:53:31;;;;;;;33.07;21.57;;;;;;;;;;770405;182;914232;-77
2021/06/29 05:55:57;;;;;;;39.17;26.10;;;;;;;;;;766424;179;919174;-74
2021/06/29 05:58:23;;;;;;;36.63;26.40;;;;;;;;;;763483;182;907053;-78
2021/06/29 06:00:48;;;;;;;43.23;27.87;;;;;;;;;;766682;182;917637;-75
2021/06/29 06:03:15;;;;;;;35.33;24.47;;;;;;;;;;768538;181;919031;-75
2021/06/29 06:05:40;;;;;;;34.13;23.87;;;;;;;;;;763337;180;1021390;-73
2021/06/29 06:08:06;;;;;;;31.23;21.40;;;;;;;;;;759403;182;918831;-76
2021/06/29 06:10:32;;;;;;;35.10;21.77;;;;;;;;;;766102;179;918079;-78
2021/06/29 06:12:58;;;;;;;24.67;21.50;;;;;;;;;;765345;182;919012;-75
2021/06/29 06:15:24;;;;;;;29.23;21.60;;;;;;;;;;765096;182;919121;-76
2021/06/29 06:17:49;;;;;;;31.20;24.00;;;;;;;;;;767148;182;919510;-76
2021/06/29 06:20:17;;;;;;;29.83;22.50;;;;;;;;;;766099;182;919244;-77
2021/06/29 06:22:41;;;;;;;33.40;22.20;;;;;;;;;;765754;182;1019640;-75
2021/06/29 06:25:07;;;;;;;27.90;22.93;;;;;;;;;;770605;182;916836;-73
2021/06/29 06:27:33;;;;;;;32.43;20.47;;;;;;;;;;754603;182;919933;-72
2021/06/29 06:29:59;;;;;;;27.90;21.13;;;;;;;;;;765455;182;919544;-76
2021/06/29 06:32:25;;;;;;;38.93;22.50;;;;;;;;;;767315;182;915223;-74
2021/06/29 06:34:51;;;;;;;29.83;23.17;;;;;;;;;;766371;183;916457;-76
2021/06/29 06:37:17;;;;;;;32.60;24.20;;;;;;;;;;761887;179;918607;-77
2021/06/29 06:39:43;;;;;;;31.30;22.33;;;;;;;;;;766864;182;812667;-80
2021/06/29 06:42:09;;;;;;;31.50;19.33;;;;;;;;;;764224;179;920421;-76
2021/06/29 06:44:35;;;;;;;27.70;21.23;;;;;;;;;;765214;182;910689;-81
2021/06/29 06:47:00;;;;;;;29.50;20.30;;;;;;;;;;764165;182;919567;-77
2021/06/29 06:49:26;;;;;;;32.70;23.67;;;;;;;;;;767597;182;919892;-74
2021/06/29 06:51:52;;;;;;;36.30;20.20;;;;;;;;;;763783;182;918184;-76
2021/06/29 06:54:18;;;;;;;31.70;23.60;;;;;;;;;;764330;182;911585;-78
2021/06/29 06:56:44;;;;;;;34.23;20.50;;;;;;;;;;771522;182;854815;-76
2021/06/29 06:59:10;;;;;;;34.87;23.23;;;;;;;;;;762404;182;981659;-78
2021/06/29 07:01:39;;;;;;;31.20;22.53;;;;;;;;;;760059;182;919661;-80
2021/06/29 07:04:01;;;;;;;30.60;23.47;;;;;;;;;;762711;182;1020168;-81
2021/06/29 07:06:27;;;;;;;23.50;18.70;;;;;;;;;;773758;182;815567;-75
2021/06/29 07:08:53;;;;;;;27.90;20.90;;;;;;;;;;766763;182;807314;-76
2021/06/29 07:11:19;;;;;;;26.23;20.07;;;;;;;;;;760814;182;918557;-75
2021/06/29 07:13:45;;;;;;;25.87;19.40;;;;;;;;;;770983;181;918986;-78
2021/06/29 07:16:10;;;;;;;23.63;19.37;;;;;;;;;;767077;181;918404;-79
2021/06/29 07:18:36;;;;;;;36.40;22.77;;;;;;;;;;759482;182;922632;-78
2021/06/29 07:21:02;;;;;;;26.20;19.77;;;;;;;;;;770438;182;918739;-78
2021/06/29 07:23:28;;;;;;;29.13;22.53;;;;;;;;;;766694;182;918621;-78
2021/06/29 07:25:54;;;;;;;26.37;20.77;;;;;;;;;;767466;182;919505;-74
2021/06/29 07:28:20;;;;;;;26.80;18.07;;;;;;;;;;764837;182;918649;-75
2021/06/29 07:30:46;;;;;;;19.03;16.70;;;;;;;;;;765756;180;918818;-75
2021/06/29 07:33:11;;;;;;;28.20;19.07;;;;;;;;;;768478;182;919430;-74
2021/06/29 07:35:37;;;;;;;29.57;23.00;;;;;;;;;;765278;179;824109;-74
2021/06/29 07:38:03;;;;;;;36.47;28.08;;;;;;;;;;769948;182;918456;-74
2021/06/29 07:40:30;;;;;;;28.20;22.53;;;;;;;;;;765999;182;920251;-73
2021/06/29 07:42:56;;;;;;;28.93;18.43;;;;;;;;;;765061;182;918274;-76
2021/06/29 07:45:21;;;;;;;26.07;20.73;;;;;;;;;;771008;182;918819;-77
2021/06/29 07:47:47;;;;;;;27.33;20.33;;;;;;;;;;768420;182;964913;-79
2021/06/29 07:50:13;;;;;;;24.43;15.07;;;;;;;;;;764569;182;918695;-77
2021/06/29 07:52:39;;;;;;;24.33;18.67;;;;;;;;;;766306;182;919272;-75
2021/06/29 07:55:05;;;;;;;24.47;16.70;;;;;;;;;;767775;182;919285;-72
2021/06/29 07:57:31;;;;;;;31.43;20.40;;;;;;;;;;762039;182;1020158;-77
2021/06/29 07:59:57;;;;;;;34.20;25.90;;;;;;;;;;763154;182;919093;-76
2021/06/29 08:02:23;;;;;;;46.70;34.73;;;;;;;;;;771590;182;917069;-75
2021/06/29 08:04:49;;;;;;;29.90;20.10;;;;;;;;;;764441;182;920567;-78
2021/06/29 08:07:14;;;;;;;101.17;92.57;;;;;;;;;;761266;179;932069;-76
2021/06/29 08:09:40;;;;;;;27.53;19.57;;;;;;;;;;765766;182;920433;-74
2021/06/29 08:12:06;;;;;;;19.47;16.23;;;;;;;;;;760285;181;927276;-77
2021/06/29 08:14:32;;;;;;;25.02;17.40;;;;;;;;;;764821;182;816189;-77
2021/06/29 08:16:58;;;;;;;17.50;14.67;;;;;;;;;;768608;182;917233;-78
2021/06/29 08:19:24;;;;;;;26.50;18.77;;;;;;;;;;763748;182;856866;-73
2021/06/29 08:21:50;;;;;;;21.33;15.97;;;;;;;;;;765841;180;914038;-71
2021/06/29 08:24:15;;;;;;;22.23;15.17;;;;;;;;;;764899;182;916038;-75
2021/06/29 08:26:41;;;;;;;18.07;16.17;;;;;;;;;;765876;181;915542;-76
2021/06/29 08:29:07;;;;;;;30.70;18.03;;;;;;;;;;767906;182;916432;-79
2021/06/29 08:31:33;;;;;;;22.33;17.03;;;;;;;;;;761767;179;916364;-77
2021/06/29 08:33:59;;;;;;;27.00;18.80;;;;;;;;;;770014;182;913788;-78
2021/06/29 08:36:25;;;;;;;32.27;18.50;;;;;;;;;;766411;182;816251;-78
2021/06/29 08:38:51;;;;;;;21.13;16.00;;;;;;;;;;768013;182;914306;-78
2021/06/29 08:41:17;;;;;;;19.87;15.63;;;;;;;;;;763919;182;932504;-76
2021/06/29 08:43:43;;;;;;;22.20;17.07;;;;;;;;;;758066;182;1307737;-77
2021/06/29 08:46:09;;;;;;;20.17;15.60;;;;;;;;;;765919;182;919478;-80
2021/06/29 08:48:35;;;;;;;28.62;15.80;;;;;;;;;;768063;182;918739;-77
2021/06/29 08:51:05;;;;;;;21.10;16.00;;;;;;;;;;762455;182;918306;-76
2021/06/29 08:53:27;;;;;;;15.93;14.30;;;;;;;;;;768901;182;919548;-72
2021/06/29 08:55:53;;;;;;;15.27;13.73;;;;;;;;;;765159;179;918989;-75
2021/06/29 08:58:19;;;;;;;20.70;13.63;;;;;;;;;;767333;182;918986;-77
2021/06/29 09:00:44;;;;;;;16.27;13.47;;;;;;;;;;758273;182;901794;-78
2021/06/29 09:03:10;;;;;;;16.00;14.35;;;;;;;;;;764638;182;919388;-73
2021/06/29 09:05:36;;;;;;;21.43;15.57;;;;;;;;;;767655;182;815672;-76
2021/06/29 09:08:02;;;;;;;22.97;17.90;;;;;;;;;;765861;182;918796;-76
2021/06/29 09:10:28;;;;;;;22.40;15.33;;;;;;;;;;767220;182;918777;-77
2021/06/29 09:12:55;;;;;;;16.00;13.00;;;;;;;;;;770912;182;816405;-78
2021/06/29 09:15:25;;;;;;;21.53;16.40;;;;;;;;;;768910;179;918638;-79
2021/06/29 09:17:51;;;;;;;27.23;20.33;;;;;;;;;;766069;182;920561;-77
2021/06/29 09:20:23;;;;;;;20.60;16.57;;;;;;;;;;762435;182;919995;-77
2021/06/29 09:22:49;;;;;;;25.90;18.93;;;;;;;;;;771175;182;1021872;-77
2021/06/29 09:25:21;;;;;;;28.43;20.20;;;;;;;;;;765619;179;918057;-77
2021/06/29 09:27:47;;;;;;;27.77;21.47;;;;;;;;;;762142;182;918150;-76
2021/06/29 09:30:18;;;;;;;26.83;23.20;;;;;;;;;;757218;182;918802;-78
2021/06/29 09:32:44;;;;;;;19.57;14.97;;;;;;;;;;773201;182;919042;-78
2021/06/29 09:35:10;;;;;;;25.93;19.40;;;;;;;;;;765192;179;918816;-77
2021/06/29 09:37:38;;;;;;;22.00;15.67;;;;;;;;;;767676;180;918339;-76
2021/06/29 09:40:08;;;;;;;20.77;13.67;;;;;;;;;;769406;182;815362;-76
2021/06/29 09:42:33;;;;;;;16.23;13.27;;;;;;;;;;772544;182;918707;-75
2021/06/29 09:44:59;;;;;;;13.87;12.47;;;;;;;;;;766081;182;918423;-77
2021/06/29 09:47:25;;;;;;;28.90;20.33;;;;;;;;;;767381;182;917310;-77
2021/06/29 09:49:51;;;;;;;23.97;16.93;;;;;;;;;;770387;182;919192;-78
2021/06/29 09:52:17;;;;;;;24.03;16.97;;;;;;;;;;764230;182;919084;-77
2021/06/29 09:54:43;;;;;;;38.43;26.10;;;;;;;;;;766543;182;919651;-75
2021/06/29 09:57:10;;;;;;;20.23;13.67;;;;;;;;;;765259;179;918070;-76
2021/06/29 09:59:34;;;;;;;17.53;15.73;;;;;;;;;;763836;182;918982;-75
2021/06/29 10:02:04;;;;;;;34.13;22.90;;;;;;;;;;763862;179;918132;-78
2021/06/29 10:04:31;;;;;;;23.52;16.98;;;;;;;;;;763950;182;919580;-78
2021/06/29 10:06:56;;;;;;;29.60;19.20;;;;;;;;;;768452;182;919288;-75
2021/06/29 10:09:22;;;;;;;25.80;16.87;;;;;;;;;;765824;182;918488;-79
2021/06/29 10:11:53;;;;;;;24.00;19.00;;;;;;;;;;763229;180;918717;-76
2021/06/29 10:14:18;;;;;;;22.27;16.33;;;;;;;;;;766035;182;888692;-77
2021/06/29 10:16:45;;;;;;;15.77;12.83;;;;;;;;;;771486;179;814928;-75
2021/06/29 10:19:16;;;;;;;14.90;13.37;;;;;;;;;;762441;182;919120;-74
2021/06/29 10:21:40;;;;;;;17.03;12.33;;;;;;;;;;764521;179;916691;-77
2021/06/29 10:24:07;;;;;;;23.40;16.80;;;;;;;;;;769230;182;936081;-77
2021/06/29 10:26:32;;;;;;;21.90;15.23;;;;;;;;;;767428;182;946886;-75
2021/06/29 10:28:58;;;;;;;13.90;12.47;;;;;;;;;;765699;182;918429;-78
2021/06/29 10:31:24;;;;;;;20.73;11.67;;;;;;;;;;762844;179;919436;-76
2021/06/29 10:33:49;;;;;;;15.57;12.60;;;;;;;;;;766014;180;918010;-77
2021/06/29 10:36:15;;;;;;;16.17;13.03;;;;;;;;;;763236;182;1738316;-76
2021/06/29 10:38:41;;;;;;;23.87;11.40;;;;;;;;;;764447;182;920362;-74
2021/06/29 10:41:07;;;;;;;13.83;12.40;;;;;;;;;;765712;182;815430;-76
2021/06/29 10:43:34;;;;;;;13.60;10.70;;;;;;;;;;759043;182;920557;-76
2021/06/29 10:46:00;;;;;;;13.30;11.20;;;;;;;;;;758932;182;918717;-78
2021/06/29 10:48:25;;;;;;;14.07;12.67;;;;;;;;;;769973;180;919536;-76
2021/06/29 10:50:51;;;;;;;13.60;12.30;;;;;;;;;;768178;182;920296;-74
2021/06/29 10:53:23;;;;;;;13.93;11.00;;;;;;;;;;759584;182;921941;-76
2021/06/29 10:55:49;;;;;;;17.20;11.10;;;;;;;;;;764757;182;918820;-73
2021/06/29 10:58:15;;;;;;;12.50;10.23;;;;;;;;;;770958;182;940826;-77
2021/06/29 11:00:40;;;;;;;13.40;11.67;;;;;;;;;;762026;180;919328;-74
2021/06/29 11:03:06;;;;;;;13.70;11.43;;;;;;;;;;765354;182;915374;-78
2021/06/29 11:05:33;;;;;;;15.23;11.13;;;;;;;;;;770028;182;919279;-75
2021/06/29 11:08:06;;;;;;;13.30;10.40;;;;;;;;;;767872;182;919716;-70
2021/06/29 11:10:32;;;;;;;12.30;10.87;;;;;;;;;;760819;182;917290;-78
2021/06/29 11:12:58;;;;;;;20.43;13.17;;;;;;;;;;765748;182;981056;-76
2021/06/29 11:15:44;;;;;;;19.00;13.37;;;;;;;;;;771184;182;918171;-76
2021/06/29 11:18:10;;;;;;;12.80;11.60;;;;;;;;;;771055;182;918934;-75
2021/06/29 11:20:38;;;;;;;17.07;11.40;;;;;;;;;;768558;182;920045;-74
2021/06/29 11:23:05;;;;;;;16.50;13.77;;;;;;;;;;759898;182;917944;-77
2021/06/29 11:25:30;;;;;;;16.90;13.70;;;;;;;;;;765129;182;919061;-75
2021/06/29 11:28:04;;;;;;;23.50;16.00;;;;;;;;;;766740;182;918439;-74
2021/06/29 11:30:36;;;;;;;19.43;14.30;;;;;;;;;;763892;182;918395;-76
2021/06/29 11:33:18;;;;;;;15.80;13.30;;;;;;;;;;765126;182;1020065;-75
2021/06/29 11:35:44;;;;;;;29.70;22.03;;;;;;;;;;762835;182;919516;-76
2021/06/29 11:38:10;;;;;;;16.30;13.23;;;;;;;;;;764298;182;913228;-77
2021/06/29 11:40:36;;;;;;;20.63;16.63;;;;;;;;;;766170;181;918583;-75
2021/06/29 11:43:04;;;;;;;14.90;11.53;;;;;;;;;;763848;182;919848;-73
2021/06/29 11:45:30;;;;;;;20.80;15.27;;;;;;;;;;763540;182;918153;-76
2021/06/29 11:47:57;;;;;;;18.27;15.00;;;;;;;;;;774903;182;816557;-76
2021/06/29 11:50:25;;;;;;;18.23;16.30;;;;;;;;;;765672;182;919145;-76
2021/06/29 11:52:48;;;;;;;15.97;14.33;;;;;;;;;;764697;182;943522;-77
2021/06/29 11:55:17;;;;;;;17.37;13.30;;;;;;;;;;769115;182;918196;-74
2021/06/29 11:57:43;;;;;;;15.23;12.10;;;;;;;;;;764979;182;871197;-76
2021/06/29 12:00:15;;;;;;;16.53;12.17;;;;;;;;;;765890;180;919412;-73
2021/06/29 12:02:42;;;;;;;13.53;11.90;;;;;;;;;;768923;182;919024;-77
2021/06/29 12:05:06;;;;;;;13.80;12.40;;;;;;;;;;773511;179;918703;-76
2021/06/29 12:07:37;;;;;;;18.60;12.70;;;;;;;;;;763447;182;918608;-75
2021/06/29 12:10:09;;;;;;;13.80;12.13;;;;;;;;;;765244;179;918912;-76
2021/06/29 12:12:35;;;;;;;15.40;11.50;;;;;;;;;;764960;182;918022;-76
2021/06/29 12:15:11;;;;;;;13.97;12.47;;;;;;;;;;770376;179;919401;-75
2021/06/29 12:17:37;;;;;;;17.83;11.03;;;;;;;;;;773628;182;918766;-75
2021/06/29 12:20:05;;;;;;;15.13;11.40;;;;;;;;;;769849;182;918296;-77
2021/06/29 12:22:31;;;;;;;16.10;11.50;;;;;;;;;;763210;182;1014811;-75
2021/06/29 12:24:56;;;;;;;13.40;12.00;;;;;;;;;;769675;182;918944;-75
2021/06/29 12:27:22;;;;;;;12.10;10.93;;;;;;;;;;761330;182;1532982;-76
2021/06/29 12:29:48;;;;;;;15.90;12.00;;;;;;;;;;762745;182;918883;-76
2021/06/29 12:32:14;;;;;;;14.60;12.43;;;;;;;;;;762313;182;918928;-77
2021/06/29 12:34:40;;;;;;;17.47;12.10;;;;;;;;;;759625;183;918521;-74
2021/06/29 12:37:06;;;;;;;13.53;10.80;;;;;;;;;;767495;182;816184;-77
2021/06/29 12:39:32;;;;;;;15.10;11.57;;;;;;;;;;762668;182;918375;-75
2021/06/29 12:41:57;;;;;;;12.20;11.10;;;;;;;;;;769157;182;916913;-78
2021/06/29 12:44:23;;;;;;;21.63;11.60;;;;;;;;;;766945;182;815935;-77
2021/06/29 12:46:49;;;;;;;15.15;11.55;;;;;;;;;;760679;179;919242;-77
2021/06/29 12:49:17;;;;;;;13.90;12.60;;;;;;;;;;765734;182;916753;-73
2021/06/29 12:51:43;;;;;;;13.13;10.33;;;;;;;;;;762322;182;918752;-77
2021/06/29 12:54:08;;;;;;;12.95;11.45;;;;;;;;;;764576;182;918705;-75
2021/06/29 12:56:35;;;;;;;11.90;10.80;;;;;;;;;;766931;180;916592;-76
2021/06/29 12:59:01;;;;;;;16.93;11.43;;;;;;;;;;768467;182;920674;-76
2021/06/29 13:01:27;;;;;;;21.03;11.70;;;;;;;;;;763386;182;919239;-76
2021/06/29 13:03:53;;;;;;;12.83;11.57;;;;;;;;;;763027;182;918129;-76
2021/06/29 13:06:18;;;;;;;11.73;10.63;;;;;;;;;;769903;182;920628;-78
2021/06/29 13:08:44;;;;;;;14.10;11.07;;;;;;;;;;762678;182;821157;-76
2021/06/29 13:11:13;;;;;;;13.13;11.87;;;;;;;;;;763315;182;815246;-77
2021/06/29 13:13:37;;;;;;;19.70;12.80;;;;;;;;;;771232;181;917548;-74
2021/06/29 13:16:03;;;;;;;12.73;11.43;;;;;;;;;;765793;182;917550;-78
2021/06/29 13:18:30;;;;;;;19.07;12.83;;;;;;;;;;766646;182;816695;-74
2021/06/29 13:20:56;;;;;;;14.40;11.97;;;;;;;;;;761451;179;917503;-75
2021/06/29 13:23:22;;;;;;;13.57;12.13;;;;;;;;;;770263;182;919990;-75
2021/06/29 13:25:48;;;;;;;15.87;10.80;;;;;;;;;;764560;182;913083;-74
2021/06/29 13:28:14;;;;;;;12.27;11.00;;;;;;;;;;766166;182;915485;-75
2021/06/29 13:30:40;;;;;;;12.60;11.30;;;;;;;;;;770090;179;913693;-75
2021/06/29 13:33:07;;;;;;;13.63;11.90;;;;;;;;;;766594;182;808804;-77
2021/06/29 13:35:32;;;;;;;12.80;11.40;;;;;;;;;;766741;182;916310;-74
2021/06/29 13:37:59;;;;;;;16.43;11.07;;;;;;;;;;772227;182;915619;-73
2021/06/29 13:40:25;;;;;;;16.47;12.30;;;;;;;;;;764561;182;929978;-76
2021/06/29 13:42:51;;;;;;;12.55;11.25;;;;;;;;;;763586;182;914874;-76
2021/06/29 13:45:15;;;;;;;21.23;13.13;;;;;;;;;;767362;179;812816;-74
2021/06/29 13:47:45;;;;;;;15.13;13.20;;;;;;;;;;767307;182;908988;-73
2021/06/29 13:50:12;;;;;;;17.13;12.03;;;;;;;;;;764318;182;914585;-75
2021/06/29 13:52:37;;;;;;;14.90;10.90;;;;;;;;;;764030;182;916816;-74
2021/06/29 13:55:05;;;;;;;12.53;11.30;;;;;;;;;;772126;182;915551;-76
2021/06/29 13:57:31;;;;;;;13.50;12.20;;;;;;;;;;766509;182;1022934;-74
2021/06/29 13:59:57;;;;;;;15.27;12.60;;;;;;;;;;762223;182;919295;-73
2021/06/29 14:02:28;;;;;;;78.40;17.90;;;;;;;;;;772526;179;1124674;-73